sensor_id;sensor_type;location;lat;lon;timestamp;P1;durP1;ratioP1;P2;durP2;ratioP2
24663;SDS011;12791;50.992;13.788;2023-11-21T00:00:16;0.90;;;0.50;;
24663;SDS011;12791;50.992;13.788;2023-11-21T00:02:44;0.50;;;0.40;;
24663;SDS011;12791;50.992;13.788;2023-11-21T00:05:11;0.50;;;0.35;;
24663;SDS011;12791;50.992;13.788;2023-11-21T00:07:39;1.27;;;0.50;;
24663;SDS011;12791;50.992;13.788;2023-11-21T00:10:07;1.00;;;0.52;;
24663;SDS011;12791;50.992;13.788;2023-11-21T00:12:35;0.90;;;0.50;;
24663;SDS011;12791;50.992;13.788;2023-11-21T00:15:03;0.57;;;0.43;;
24663;SDS011;12791;50.992;13.788;2023-11-21T00:17:32;0.95;;;0.50;;
24663;SDS011;12791;50.992;13.788;2023-11-21T00:19:59;0.60;;;0.60;;
24663;SDS011;12791;50.992;13.788;2023-11-21T00:22:25;2.63;;;0.85;;
24663;SDS011;12791;50.992;13.788;2023-11-21T00:24:52;2.05;;;1.27;;
24663;SDS011;12791;50.992;13.788;2023-11-21T00:27:19;1.30;;;0.93;;
24663;SDS011;12791;50.992;13.788;2023-11-21T00:29:46;2.97;;;1.25;;
24663;SDS011;12791;50.992;13.788;2023-11-21T00:32:12;1.13;;;0.75;;
24663;SDS011;12791;50.992;13.788;2023-11-21T00:34:40;1.67;;;0.95;;
24663;SDS011;12791;50.992;13.788;2023-11-21T00:37:07;1.98;;;1.00;;
24663;SDS011;12791;50.992;13.788;2023-11-21T00:39:34;2.08;;;0.88;;
24663;SDS011;12791;50.992;13.788;2023-11-21T00:42:01;1.15;;;1.00;;
24663;SDS011;12791;50.992;13.788;2023-11-21T00:44:29;1.30;;;1.02;;
24663;SDS011;12791;50.992;13.788;2023-11-21T00:46:56;0.68;;;0.68;;
24663;SDS011;12791;50.992;13.788;2023-11-21T00:49:23;1.38;;;1.00;;
24663;SDS011;12791;50.992;13.788;2023-11-21T00:51:51;2.80;;;0.80;;
24663;SDS011;12791;50.992;13.788;2023-11-21T00:54:18;0.75;;;0.60;;
24663;SDS011;12791;50.992;13.788;2023-11-21T00:56:44;1.70;;;0.50;;
24663;SDS011;12791;50.992;13.788;2023-11-21T00:59:12;1.77;;;0.80;;
24663;SDS011;12791;50.992;13.788;2023-11-21T01:01:39;1.27;;;0.63;;
24663;SDS011;12791;50.992;13.788;2023-11-21T01:04:05;1.90;;;0.60;;
24663;SDS011;12791;50.992;13.788;2023-11-21T01:06:32;2.55;;;0.75;;
24663;SDS011;12791;50.992;13.788;2023-11-21T01:09:00;1.52;;;0.80;;
24663;SDS011;12791;50.992;13.788;2023-11-21T01:14:01;2.58;;;0.90;;
24663;SDS011;12791;50.992;13.788;2023-11-21T01:16:28;3.10;;;1.17;;
24663;SDS011;12791;50.992;13.788;2023-11-21T01:18:57;3.72;;;1.00;;
24663;SDS011;12791;50.992;13.788;2023-11-21T01:21:24;3.30;;;0.88;;
24663;SDS011;12791;50.992;13.788;2023-11-21T01:23:51;3.13;;;1.15;;
24663;SDS011;12791;50.992;13.788;2023-11-21T01:26:19;1.85;;;0.93;;
24663;SDS011;12791;50.992;13.788;2023-11-21T01:28:45;2.60;;;0.75;;
24663;SDS011;12791;50.992;13.788;2023-11-21T01:31:14;1.15;;;0.80;;
24663;SDS011;12791;50.992;13.788;2023-11-21T01:33:40;1.90;;;1.23;;
24663;SDS011;12791;50.992;13.788;2023-11-21T01:36:07;3.15;;;0.90;;
24663;SDS011;12791;50.992;13.788;2023-11-21T01:38:35;3.05;;;1.00;;
24663;SDS011;12791;50.992;13.788;2023-11-21T01:41:02;4.15;;;1.23;;
24663;SDS011;12791;50.992;13.788;2023-11-21T01:43:30;1.52;;;0.88;;
24663;SDS011;12791;50.992;13.788;2023-11-21T01:45:57;2.70;;;1.02;;
24663;SDS011;12791;50.992;13.788;2023-11-21T01:48:25;4.10;;;1.30;;
24663;SDS011;12791;50.992;13.788;2023-11-21T01:50:52;5.32;;;0.90;;
24663;SDS011;12791;50.992;13.788;2023-11-21T01:53:19;1.60;;;0.80;;
24663;SDS011;12791;50.992;13.788;2023-11-21T01:55:46;1.73;;;0.82;;
24663;SDS011;12791;50.992;13.788;2023-11-21T01:58:13;1.75;;;0.80;;
24663;SDS011;12791;50.992;13.788;2023-11-21T02:00:41;1.90;;;0.93;;
24663;SDS011;12791;50.992;13.788;2023-11-21T02:03:08;2.72;;;0.95;;
24663;SDS011;12791;50.992;13.788;2023-11-21T02:05:35;1.63;;;0.80;;
24663;SDS011;12791;50.992;13.788;2023-11-21T02:08:02;2.78;;;0.70;;
24663;SDS011;12791;50.992;13.788;2023-11-21T02:10:30;1.77;;;0.95;;
24663;SDS011;12791;50.992;13.788;2023-11-21T02:12:57;2.17;;;1.40;;
24663;SDS011;12791;50.992;13.788;2023-11-21T02:15:25;2.45;;;1.30;;
24663;SDS011;12791;50.992;13.788;2023-11-21T02:17:55;1.48;;;1.02;;
24663;SDS011;12791;50.992;13.788;2023-11-21T02:20:23;1.15;;;0.70;;
24663;SDS011;12791;50.992;13.788;2023-11-21T02:22:53;2.05;;;0.70;;
24663;SDS011;12791;50.992;13.788;2023-11-21T02:25:22;3.17;;;0.88;;
24663;SDS011;12791;50.992;13.788;2023-11-21T02:27:49;2.35;;;0.70;;
24663;SDS011;12791;50.992;13.788;2023-11-21T02:30:16;1.83;;;0.68;;
24663;SDS011;12791;50.992;13.788;2023-11-21T02:32:43;2.83;;;0.90;;
24663;SDS011;12791;50.992;13.788;2023-11-21T02:35:11;2.42;;;0.63;;
24663;SDS011;12791;50.992;13.788;2023-11-21T02:37:38;1.40;;;0.57;;
24663;SDS011;12791;50.992;13.788;2023-11-21T02:40:08;2.08;;;0.63;;
24663;SDS011;12791;50.992;13.788;2023-11-21T02:42:37;1.95;;;0.60;;
24663;SDS011;12791;50.992;13.788;2023-11-21T02:45:04;2.10;;;0.70;;
24663;SDS011;12791;50.992;13.788;2023-11-21T02:47:32;1.10;;;0.60;;
24663;SDS011;12791;50.992;13.788;2023-11-21T02:49:59;3.65;;;0.70;;
24663;SDS011;12791;50.992;13.788;2023-11-21T02:52:25;0.90;;;0.70;;
24663;SDS011;12791;50.992;13.788;2023-11-21T02:54:52;2.47;;;0.70;;
24663;SDS011;12791;50.992;13.788;2023-11-21T02:57:20;3.53;;;0.60;;
24663;SDS011;12791;50.992;13.788;2023-11-21T02:59:47;2.35;;;0.90;;
24663;SDS011;12791;50.992;13.788;2023-11-21T03:02:14;3.08;;;0.70;;
24663;SDS011;12791;50.992;13.788;2023-11-21T03:04:40;2.35;;;0.70;;
24663;SDS011;12791;50.992;13.788;2023-11-21T03:07:08;3.60;;;0.80;;
24663;SDS011;12791;50.992;13.788;2023-11-21T03:09:35;2.10;;;0.60;;
24663;SDS011;12791;50.992;13.788;2023-11-21T03:12:02;1.95;;;0.43;;
24663;SDS011;12791;50.992;13.788;2023-11-21T03:14:30;1.50;;;0.75;;
24663;SDS011;12791;50.992;13.788;2023-11-21T03:16:57;2.00;;;0.70;;
24663;SDS011;12791;50.992;13.788;2023-11-21T03:19:24;1.75;;;0.60;;
24663;SDS011;12791;50.992;13.788;2023-11-21T03:21:50;1.33;;;0.80;;
24663;SDS011;12791;50.992;13.788;2023-11-21T03:24:18;2.17;;;0.70;;
24663;SDS011;12791;50.992;13.788;2023-11-21T03:26:45;1.35;;;0.70;;
24663;SDS011;12791;50.992;13.788;2023-11-21T03:29:12;4.03;;;0.70;;
24663;SDS011;12791;50.992;13.788;2023-11-21T03:31:41;2.05;;;0.70;;
24663;SDS011;12791;50.992;13.788;2023-11-21T03:34:10;2.38;;;0.90;;
24663;SDS011;12791;50.992;13.788;2023-11-21T03:39:07;2.03;;;0.70;;
24663;SDS011;12791;50.992;13.788;2023-11-21T03:41:34;2.60;;;0.70;;
24663;SDS011;12791;50.992;13.788;2023-11-21T03:44:00;1.58;;;0.80;;
24663;SDS011;12791;50.992;13.788;2023-11-21T03:46:27;4.03;;;1.05;;
24663;SDS011;12791;50.992;13.788;2023-11-21T03:48:55;2.63;;;0.95;;
24663;SDS011;12791;50.992;13.788;2023-11-21T03:51:22;0.95;;;0.80;;
24663;SDS011;12791;50.992;13.788;2023-11-21T03:53:48;2.15;;;0.88;;
24663;SDS011;12791;50.992;13.788;2023-11-21T03:56:15;3.05;;;0.98;;
24663;SDS011;12791;50.992;13.788;2023-11-21T03:58:42;4.10;;;1.38;;
24663;SDS011;12791;50.992;13.788;2023-11-21T04:01:08;2.47;;;0.88;;
24663;SDS011;12791;50.992;13.788;2023-11-21T04:03:35;2.80;;;0.98;;
24663;SDS011;12791;50.992;13.788;2023-11-21T04:06:04;2.45;;;0.93;;
24663;SDS011;12791;50.992;13.788;2023-11-21T04:08:31;2.97;;;1.27;;
24663;SDS011;12791;50.992;13.788;2023-11-21T04:10:59;2.00;;;1.13;;
24663;SDS011;12791;50.992;13.788;2023-11-21T04:13:26;3.67;;;1.42;;
24663;SDS011;12791;50.992;13.788;2023-11-21T04:15:53;6.00;;;1.40;;
24663;SDS011;12791;50.992;13.788;2023-11-21T04:18:19;3.75;;;1.23;;
24663;SDS011;12791;50.992;13.788;2023-11-21T04:20:48;3.13;;;1.17;;
24663;SDS011;12791;50.992;13.788;2023-11-21T04:23:16;2.95;;;1.20;;
24663;SDS011;12791;50.992;13.788;2023-11-21T04:25:43;4.00;;;1.10;;
24663;SDS011;12791;50.992;13.788;2023-11-21T04:28:09;2.22;;;1.30;;
24663;SDS011;12791;50.992;13.788;2023-11-21T04:30:36;1.45;;;1.15;;
24663;SDS011;12791;50.992;13.788;2023-11-21T04:33:04;1.90;;;1.48;;
24663;SDS011;12791;50.992;13.788;2023-11-21T04:35:31;3.38;;;1.60;;
24663;SDS011;12791;50.992;13.788;2023-11-21T04:37:58;4.22;;;1.85;;
24663;SDS011;12791;50.992;13.788;2023-11-21T04:40:26;4.85;;;1.85;;
24663;SDS011;12791;50.992;13.788;2023-11-21T04:42:53;4.15;;;1.35;;
24663;SDS011;12791;50.992;13.788;2023-11-21T04:45:19;2.85;;;1.70;;
24663;SDS011;12791;50.992;13.788;2023-11-21T04:47:46;5.32;;;1.77;;
24663;SDS011;12791;50.992;13.788;2023-11-21T04:50:13;3.92;;;1.60;;
24663;SDS011;12791;50.992;13.788;2023-11-21T04:52:40;4.32;;;1.67;;
24663;SDS011;12791;50.992;13.788;2023-11-21T04:55:07;1.92;;;1.80;;
24663;SDS011;12791;50.992;13.788;2023-11-21T04:57:36;5.78;;;1.98;;
24663;SDS011;12791;50.992;13.788;2023-11-21T05:00:03;4.25;;;2.10;;
24663;SDS011;12791;50.992;13.788;2023-11-21T05:02:31;6.85;;;1.80;;
24663;SDS011;12791;50.992;13.788;2023-11-21T05:04:59;2.20;;;1.67;;
24663;SDS011;12791;50.992;13.788;2023-11-21T05:07:25;5.88;;;1.98;;
24663;SDS011;12791;50.992;13.788;2023-11-21T05:09:53;3.33;;;1.83;;
24663;SDS011;12791;50.992;13.788;2023-11-21T05:12:21;3.83;;;1.85;;
24663;SDS011;12791;50.992;13.788;2023-11-21T05:14:50;3.95;;;1.88;;
24663;SDS011;12791;50.992;13.788;2023-11-21T05:17:16;2.95;;;2.15;;
24663;SDS011;12791;50.992;13.788;2023-11-21T05:19:43;5.30;;;2.17;;
24663;SDS011;12791;50.992;13.788;2023-11-21T05:22:11;5.60;;;2.05;;
24663;SDS011;12791;50.992;13.788;2023-11-21T05:24:38;6.90;;;1.80;;
24663;SDS011;12791;50.992;13.788;2023-11-21T05:27:05;4.55;;;2.00;;
24663;SDS011;12791;50.992;13.788;2023-11-21T05:29:31;4.88;;;2.30;;
24663;SDS011;12791;50.992;13.788;2023-11-21T05:31:59;3.03;;;1.75;;
24663;SDS011;12791;50.992;13.788;2023-11-21T05:34:26;5.07;;;2.40;;
24663;SDS011;12791;50.992;13.788;2023-11-21T05:36:53;5.63;;;2.33;;
24663;SDS011;12791;50.992;13.788;2023-11-21T05:39:20;4.57;;;2.30;;
24663;SDS011;12791;50.992;13.788;2023-11-21T05:41:47;2.30;;;1.75;;
24663;SDS011;12791;50.992;13.788;2023-11-21T05:44:14;6.32;;;2.45;;
24663;SDS011;12791;50.992;13.788;2023-11-21T05:46:41;4.30;;;2.38;;
24663;SDS011;12791;50.992;13.788;2023-11-21T05:49:09;4.75;;;1.98;;
24663;SDS011;12791;50.992;13.788;2023-11-21T05:51:36;5.53;;;1.73;;
24663;SDS011;12791;50.992;13.788;2023-11-21T05:54:03;5.82;;;2.00;;
24663;SDS011;12791;50.992;13.788;2023-11-21T05:56:30;6.30;;;2.58;;
24663;SDS011;12791;50.992;13.788;2023-11-21T05:58:57;5.97;;;2.30;;
24663;SDS011;12791;50.992;13.788;2023-11-21T06:01:24;6.53;;;2.30;;
24663;SDS011;12791;50.992;13.788;2023-11-21T06:03:53;6.13;;;2.67;;
24663;SDS011;12791;50.992;13.788;2023-11-21T06:06:21;5.15;;;2.53;;
24663;SDS011;12791;50.992;13.788;2023-11-21T06:08:49;4.60;;;2.30;;
24663;SDS011;12791;50.992;13.788;2023-11-21T06:11:16;7.10;;;3.05;;
24663;SDS011;12791;50.992;13.788;2023-11-21T06:13:43;4.03;;;2.38;;
24663;SDS011;12791;50.992;13.788;2023-11-21T06:16:10;4.68;;;2.42;;
24663;SDS011;12791;50.992;13.788;2023-11-21T06:18:39;3.58;;;2.70;;
24663;SDS011;12791;50.992;13.788;2023-11-21T06:21:09;5.78;;;2.80;;
24663;SDS011;12791;50.992;13.788;2023-11-21T06:23:37;8.23;;;3.55;;
24663;SDS011;12791;50.992;13.788;2023-11-21T06:26:04;8.43;;;3.15;;
24663;SDS011;12791;50.992;13.788;2023-11-21T06:28:31;6.40;;;3.10;;
24663;SDS011;12791;50.992;13.788;2023-11-21T06:30:58;5.53;;;2.42;;
24663;SDS011;12791;50.992;13.788;2023-11-21T06:33:29;8.45;;;3.13;;
24663;SDS011;12791;50.992;13.788;2023-11-21T06:35:56;6.75;;;3.20;;
24663;SDS011;12791;50.992;13.788;2023-11-21T06:38:23;6.80;;;2.90;;
24663;SDS011;12791;50.992;13.788;2023-11-21T06:40:56;6.50;;;3.17;;
24663;SDS011;12791;50.992;13.788;2023-11-21T06:43:23;5.05;;;3.17;;
24663;SDS011;12791;50.992;13.788;2023-11-21T06:45:50;5.95;;;2.88;;
24663;SDS011;12791;50.992;13.788;2023-11-21T06:48:17;6.97;;;3.50;;
24663;SDS011;12791;50.992;13.788;2023-11-21T06:50:43;6.32;;;2.90;;
24663;SDS011;12791;50.992;13.788;2023-11-21T06:53:11;7.30;;;2.92;;
24663;SDS011;12791;50.992;13.788;2023-11-21T06:55:38;7.00;;;3.30;;
24663;SDS011;12791;50.992;13.788;2023-11-21T06:58:06;5.57;;;3.05;;
24663;SDS011;12791;50.992;13.788;2023-11-21T07:00:33;6.88;;;3.40;;
24663;SDS011;12791;50.992;13.788;2023-11-21T07:03:00;5.00;;;3.30;;
24663;SDS011;12791;50.992;13.788;2023-11-21T07:05:27;7.43;;;3.78;;
24663;SDS011;12791;50.992;13.788;2023-11-21T07:07:53;5.07;;;3.40;;
24663;SDS011;12791;50.992;13.788;2023-11-21T07:10:20;8.98;;;3.97;;
24663;SDS011;12791;50.992;13.788;2023-11-21T07:12:47;7.72;;;3.50;;
24663;SDS011;12791;50.992;13.788;2023-11-21T07:15:15;8.10;;;3.47;;
24663;SDS011;12791;50.992;13.788;2023-11-21T07:17:44;5.53;;;3.22;;
24663;SDS011;12791;50.992;13.788;2023-11-21T07:20:12;7.00;;;3.58;;
24663;SDS011;12791;50.992;13.788;2023-11-21T07:22:38;5.70;;;2.92;;
24663;SDS011;12791;50.992;13.788;2023-11-21T07:25:05;9.90;;;3.35;;
24663;SDS011;12791;50.992;13.788;2023-11-21T07:27:34;6.53;;;3.95;;
24663;SDS011;12791;50.992;13.788;2023-11-21T07:30:02;9.32;;;3.88;;
24663;SDS011;12791;50.992;13.788;2023-11-21T07:32:32;7.45;;;4.25;;
24663;SDS011;12791;50.992;13.788;2023-11-21T07:34:59;5.45;;;3.55;;
24663;SDS011;12791;50.992;13.788;2023-11-21T07:37:26;6.28;;;3.55;;
24663;SDS011;12791;50.992;13.788;2023-11-21T07:39:54;7.18;;;4.20;;
24663;SDS011;12791;50.992;13.788;2023-11-21T07:42:21;7.55;;;4.47;;
24663;SDS011;12791;50.992;13.788;2023-11-21T07:44:52;8.40;;;4.60;;
24663;SDS011;12791;50.992;13.788;2023-11-21T07:47:19;11.55;;;4.82;;
24663;SDS011;12791;50.992;13.788;2023-11-21T07:49:47;7.65;;;3.88;;
24663;SDS011;12791;50.992;13.788;2023-11-21T07:52:13;7.22;;;4.30;;
24663;SDS011;12791;50.992;13.788;2023-11-21T07:54:41;7.80;;;4.00;;
24663;SDS011;12791;50.992;13.788;2023-11-21T07:57:08;12.93;;;5.80;;
24663;SDS011;12791;50.992;13.788;2023-11-21T07:59:38;9.20;;;4.50;;
24663;SDS011;12791;50.992;13.788;2023-11-21T08:02:05;6.10;;;4.15;;
24663;SDS011;12791;50.992;13.788;2023-11-21T08:04:32;7.40;;;4.30;;
24663;SDS011;12791;50.992;13.788;2023-11-21T08:07:01;7.93;;;4.28;;
24663;SDS011;12791;50.992;13.788;2023-11-21T08:09:29;11.40;;;4.50;;
24663;SDS011;12791;50.992;13.788;2023-11-21T08:11:56;11.70;;;4.18;;
24663;SDS011;12791;50.992;13.788;2023-11-21T08:14:23;11.18;;;4.88;;
24663;SDS011;12791;50.992;13.788;2023-11-21T08:16:50;8.70;;;5.53;;
24663;SDS011;12791;50.992;13.788;2023-11-21T08:19:17;11.07;;;4.72;;
24663;SDS011;12791;50.992;13.788;2023-11-21T08:21:44;11.55;;;4.47;;
24663;SDS011;12791;50.992;13.788;2023-11-21T08:24:12;9.60;;;4.25;;
24663;SDS011;12791;50.992;13.788;2023-11-21T08:26:39;11.63;;;5.45;;
24663;SDS011;12791;50.992;13.788;2023-11-21T08:29:06;9.00;;;4.70;;
24663;SDS011;12791;50.992;13.788;2023-11-21T08:31:33;11.52;;;5.60;;
24663;SDS011;12791;50.992;13.788;2023-11-21T08:34:00;9.95;;;5.15;;
24663;SDS011;12791;50.992;13.788;2023-11-21T08:36:28;13.77;;;6.57;;
24663;SDS011;12791;50.992;13.788;2023-11-21T08:38:53;12.82;;;6.25;;
24663;SDS011;12791;50.992;13.788;2023-11-21T08:41:22;12.00;;;5.90;;
24663;SDS011;12791;50.992;13.788;2023-11-21T08:43:49;14.27;;;6.05;;
24663;SDS011;12791;50.992;13.788;2023-11-21T08:46:16;13.85;;;5.30;;
24663;SDS011;12791;50.992;13.788;2023-11-21T08:48:43;12.75;;;5.75;;
24663;SDS011;12791;50.992;13.788;2023-11-21T08:51:11;8.48;;;5.35;;
24663;SDS011;12791;50.992;13.788;2023-11-21T08:53:39;10.27;;;5.53;;
24663;SDS011;12791;50.992;13.788;2023-11-21T08:56:06;8.45;;;5.55;;
24663;SDS011;12791;50.992;13.788;2023-11-21T08:58:35;12.85;;;6.10;;
24663;SDS011;12791;50.992;13.788;2023-11-21T09:01:03;12.02;;;6.20;;
24663;SDS011;12791;50.992;13.788;2023-11-21T09:03:31;11.57;;;6.20;;
24663;SDS011;12791;50.992;13.788;2023-11-21T09:05:59;10.95;;;6.30;;
24663;SDS011;12791;50.992;13.788;2023-11-21T09:08:26;11.68;;;4.78;;
24663;SDS011;12791;50.992;13.788;2023-11-21T09:10:54;9.75;;;5.18;;
24663;SDS011;12791;50.992;13.788;2023-11-21T09:13:21;10.10;;;4.90;;
24663;SDS011;12791;50.992;13.788;2023-11-21T09:15:51;6.93;;;4.78;;
24663;SDS011;12791;50.992;13.788;2023-11-21T09:18:18;8.65;;;5.10;;
24663;SDS011;12791;50.992;13.788;2023-11-21T09:20:45;9.25;;;4.75;;
24663;SDS011;12791;50.992;13.788;2023-11-21T09:23:12;10.18;;;4.68;;
24663;SDS011;12791;50.992;13.788;2023-11-21T09:25:39;11.30;;;5.18;;
24663;SDS011;12791;50.992;13.788;2023-11-21T09:28:05;8.68;;;4.45;;
24663;SDS011;12791;50.992;13.788;2023-11-21T09:30:33;9.18;;;5.13;;
24663;SDS011;12791;50.992;13.788;2023-11-21T09:33:01;9.52;;;5.00;;
24663;SDS011;12791;50.992;13.788;2023-11-21T09:35:30;7.68;;;4.97;;
24663;SDS011;12791;50.992;13.788;2023-11-21T09:37:57;10.25;;;4.95;;
24663;SDS011;12791;50.992;13.788;2023-11-21T09:40:23;3.97;;;3.58;;
24663;SDS011;12791;50.992;13.788;2023-11-21T09:42:53;4.00;;;3.53;;
24663;SDS011;12791;50.992;13.788;2023-11-21T09:45:24;3.70;;;2.92;;
24663;SDS011;12791;50.992;13.788;2023-11-21T09:47:52;4.57;;;3.28;;
24663;SDS011;12791;50.992;13.788;2023-11-21T09:50:22;4.28;;;3.58;;
24663;SDS011;12791;50.992;13.788;2023-11-21T09:52:52;4.25;;;3.45;;
24663;SDS011;12791;50.992;13.788;2023-11-21T09:55:24;4.55;;;3.30;;
24663;SDS011;12791;50.992;13.788;2023-11-21T09:57:55;4.38;;;3.35;;
24663;SDS011;12791;50.992;13.788;2023-11-21T10:00:22;5.50;;;3.20;;
24663;SDS011;12791;50.992;13.788;2023-11-21T10:02:49;4.63;;;3.30;;
24663;SDS011;12791;50.992;13.788;2023-11-21T10:05:18;4.10;;;2.90;;
24663;SDS011;12791;50.992;13.788;2023-11-21T10:07:48;4.05;;;3.63;;
24663;SDS011;12791;50.992;13.788;2023-11-21T10:10:17;5.43;;;4.70;;
24663;SDS011;12791;50.992;13.788;2023-11-21T10:12:48;6.00;;;2.95;;
24663;SDS011;12791;50.992;13.788;2023-11-21T10:15:18;3.08;;;2.85;;
24663;SDS011;12791;50.992;13.788;2023-11-21T10:17:47;1.95;;;1.67;;
24663;SDS011;12791;50.992;13.788;2023-11-21T10:20:15;4.18;;;2.15;;
24663;SDS011;12791;50.992;13.788;2023-11-21T10:22:42;3.13;;;2.90;;
24663;SDS011;12791;50.992;13.788;2023-11-21T10:25:11;3.95;;;3.70;;
24663;SDS011;12791;50.992;13.788;2023-11-21T10:27:39;4.68;;;4.28;;
24663;SDS011;12791;50.992;13.788;2023-11-21T10:30:07;7.28;;;5.97;;
24663;SDS011;12791;50.992;13.788;2023-11-21T10:32:37;6.93;;;6.07;;
24663;SDS011;12791;50.992;13.788;2023-11-21T10:35:05;8.45;;;7.55;;
24663;SDS011;12791;50.992;13.788;2023-11-21T10:37:35;9.98;;;8.40;;
24663;SDS011;12791;50.992;13.788;2023-11-21T10:40:04;11.10;;;10.00;;
24663;SDS011;12791;50.992;13.788;2023-11-21T10:42:33;9.85;;;8.85;;
24663;SDS011;12791;50.992;13.788;2023-11-21T10:45:00;11.98;;;9.77;;
24663;SDS011;12791;50.992;13.788;2023-11-21T10:47:28;12.70;;;9.60;;
24663;SDS011;12791;50.992;13.788;2023-11-21T10:49:57;15.10;;;10.27;;
24663;SDS011;12791;50.992;13.788;2023-11-21T10:52:26;12.18;;;9.48;;
24663;SDS011;12791;50.992;13.788;2023-11-21T10:54:54;13.23;;;9.85;;
24663;SDS011;12791;50.992;13.788;2023-11-21T10:57:20;10.00;;;7.65;;
24663;SDS011;12791;50.992;13.788;2023-11-21T10:59:50;12.18;;;8.85;;
24663;SDS011;12791;50.992;13.788;2023-11-21T11:02:21;12.07;;;9.47;;
24663;SDS011;12791;50.992;13.788;2023-11-21T11:04:52;12.18;;;9.52;;
24663;SDS011;12791;50.992;13.788;2023-11-21T11:07:21;14.48;;;10.00;;
24663;SDS011;12791;50.992;13.788;2023-11-21T11:09:52;18.15;;;10.98;;
24663;SDS011;12791;50.992;13.788;2023-11-21T11:12:19;13.32;;;9.93;;
24663;SDS011;12791;50.992;13.788;2023-11-21T11:14:46;15.10;;;11.00;;
24663;SDS011;12791;50.992;13.788;2023-11-21T11:17:17;16.67;;;12.00;;
24663;SDS011;12791;50.992;13.788;2023-11-21T11:19:45;17.33;;;11.63;;
24663;SDS011;12791;50.992;13.788;2023-11-21T11:22:16;16.42;;;10.50;;
24663;SDS011;12791;50.992;13.788;2023-11-21T11:24:59;13.10;;;9.80;;
24663;SDS011;12791;50.992;13.788;2023-11-21T11:27:40;14.60;;;10.02;;
24663;SDS011;12791;50.992;13.788;2023-11-21T11:30:20;13.65;;;9.57;;
24663;SDS011;12791;50.992;13.788;2023-11-21T11:32:58;8.85;;;7.50;;
24663;SDS011;12791;50.992;13.788;2023-11-21T11:35:38;8.25;;;7.13;;
24663;SDS011;12791;50.992;13.788;2023-11-21T11:38:12;9.18;;;6.65;;
24663;SDS011;12791;50.992;13.788;2023-11-21T11:40:39;9.55;;;6.25;;
24663;SDS011;12791;50.992;13.788;2023-11-21T11:43:07;8.00;;;5.90;;
24663;SDS011;12791;50.992;13.788;2023-11-21T11:45:35;8.30;;;6.78;;
24663;SDS011;12791;50.992;13.788;2023-11-21T11:48:06;9.15;;;6.68;;
24663;SDS011;12791;50.992;13.788;2023-11-21T11:50:33;8.55;;;6.50;;
24663;SDS011;12791;50.992;13.788;2023-11-21T11:53:12;7.70;;;6.65;;
24663;SDS011;12791;50.992;13.788;2023-11-21T11:55:40;9.23;;;6.30;;
24663;SDS011;12791;50.992;13.788;2023-11-21T11:58:07;8.68;;;6.45;;
24663;SDS011;12791;50.992;13.788;2023-11-21T12:00:36;10.40;;;6.28;;
24663;SDS011;12791;50.992;13.788;2023-11-21T12:03:05;8.07;;;5.97;;
24663;SDS011;12791;50.992;13.788;2023-11-21T12:05:34;6.80;;;5.65;;
24663;SDS011;12791;50.992;13.788;2023-11-21T12:08:04;7.57;;;6.43;;
24663;SDS011;12791;50.992;13.788;2023-11-21T12:10:32;7.45;;;6.00;;
24663;SDS011;12791;50.992;13.788;2023-11-21T12:13:00;9.85;;;7.28;;
24663;SDS011;12791;50.992;13.788;2023-11-21T12:15:28;11.32;;;7.03;;
24663;SDS011;12791;50.992;13.788;2023-11-21T12:17:57;8.40;;;6.85;;
24663;SDS011;12791;50.992;13.788;2023-11-21T12:20:25;8.27;;;6.85;;
24663;SDS011;12791;50.992;13.788;2023-11-21T12:22:52;10.63;;;8.30;;
24663;SDS011;12791;50.992;13.788;2023-11-21T12:25:21;10.52;;;8.00;;
24663;SDS011;12791;50.992;13.788;2023-11-21T12:27:48;9.30;;;7.55;;
24663;SDS011;12791;50.992;13.788;2023-11-21T12:30:17;9.05;;;7.25;;
24663;SDS011;12791;50.992;13.788;2023-11-21T12:32:48;11.68;;;9.10;;
24663;SDS011;12791;50.992;13.788;2023-11-21T12:35:17;8.80;;;7.28;;
24663;SDS011;12791;50.992;13.788;2023-11-21T12:37:45;9.90;;;8.15;;
24663;SDS011;12791;50.992;13.788;2023-11-21T12:40:12;10.40;;;7.93;;
24663;SDS011;12791;50.992;13.788;2023-11-21T12:42:41;11.43;;;8.77;;
24663;SDS011;12791;50.992;13.788;2023-11-21T12:45:10;12.93;;;7.95;;
24663;SDS011;12791;50.992;13.788;2023-11-21T12:47:45;7.95;;;6.90;;
24663;SDS011;12791;50.992;13.788;2023-11-21T12:50:14;9.60;;;7.03;;
24663;SDS011;12791;50.992;13.788;2023-11-21T12:52:43;10.65;;;8.30;;
24663;SDS011;12791;50.992;13.788;2023-11-21T12:55:16;9.32;;;7.75;;
24663;SDS011;12791;50.992;13.788;2023-11-21T12:57:47;11.60;;;8.77;;
24663;SDS011;12791;50.992;13.788;2023-11-21T13:00:15;9.70;;;7.82;;
24663;SDS011;12791;50.992;13.788;2023-11-21T13:02:52;12.07;;;8.90;;
24663;SDS011;12791;50.992;13.788;2023-11-21T13:05:28;9.55;;;7.95;;
24663;SDS011;12791;50.992;13.788;2023-11-21T13:07:58;9.20;;;7.75;;
24663;SDS011;12791;50.992;13.788;2023-11-21T13:10:28;10.50;;;8.40;;
24663;SDS011;12791;50.992;13.788;2023-11-21T13:12:57;10.32;;;7.80;;
24663;SDS011;12791;50.992;13.788;2023-11-21T13:15:25;11.93;;;9.02;;
24663;SDS011;12791;50.992;13.788;2023-11-21T13:17:53;13.50;;;10.00;;
24663;SDS011;12791;50.992;13.788;2023-11-21T13:20:21;14.07;;;10.25;;
24663;SDS011;12791;50.992;13.788;2023-11-21T13:22:49;13.98;;;9.77;;
24663;SDS011;12791;50.992;13.788;2023-11-21T13:25:20;12.65;;;10.18;;
24663;SDS011;12791;50.992;13.788;2023-11-21T13:27:47;13.82;;;9.95;;
24663;SDS011;12791;50.992;13.788;2023-11-21T13:30:14;11.80;;;9.95;;
24663;SDS011;12791;50.992;13.788;2023-11-21T13:32:41;14.13;;;10.95;;
24663;SDS011;12791;50.992;13.788;2023-11-21T13:35:09;13.93;;;10.93;;
24663;SDS011;12791;50.992;13.788;2023-11-21T13:37:46;12.00;;;9.32;;
24663;SDS011;12791;50.992;13.788;2023-11-21T13:40:22;11.77;;;8.82;;
24663;SDS011;12791;50.992;13.788;2023-11-21T13:42:52;12.23;;;8.68;;
24663;SDS011;12791;50.992;13.788;2023-11-21T13:45:20;10.75;;;8.82;;
24663;SDS011;12791;50.992;13.788;2023-11-21T13:47:48;11.35;;;8.98;;
24663;SDS011;12791;50.992;13.788;2023-11-21T13:50:17;13.18;;;9.70;;
24663;SDS011;12791;50.992;13.788;2023-11-21T13:52:48;15.27;;;11.77;;
24663;SDS011;12791;50.992;13.788;2023-11-21T13:55:16;14.80;;;10.45;;
24663;SDS011;12791;50.992;13.788;2023-11-21T13:57:44;14.13;;;10.93;;
24663;SDS011;12791;50.992;13.788;2023-11-21T14:00:14;15.10;;;10.32;;
24663;SDS011;12791;50.992;13.788;2023-11-21T14:03:04;14.30;;;11.18;;
24663;SDS011;12791;50.992;13.788;2023-11-21T14:05:41;14.15;;;10.52;;
24663;SDS011;12791;50.992;13.788;2023-11-21T14:08:08;17.50;;;12.07;;
24663;SDS011;12791;50.992;13.788;2023-11-21T14:10:37;20.20;;;12.57;;
24663;SDS011;12791;50.992;13.788;2023-11-21T14:13:09;19.25;;;13.40;;
24663;SDS011;12791;50.992;13.788;2023-11-21T14:15:38;19.25;;;12.18;;
24663;SDS011;12791;50.992;13.788;2023-11-21T14:18:08;20.08;;;12.35;;
24663;SDS011;12791;50.992;13.788;2023-11-21T14:20:36;21.80;;;14.00;;
24663;SDS011;12791;50.992;13.788;2023-11-21T14:23:05;20.73;;;12.05;;
24663;SDS011;12791;50.992;13.788;2023-11-21T14:25:32;16.58;;;11.13;;
24663;SDS011;12791;50.992;13.788;2023-11-21T14:27:59;18.85;;;10.68;;
24663;SDS011;12791;50.992;13.788;2023-11-21T14:30:29;17.95;;;10.55;;
24663;SDS011;12791;50.992;13.788;2023-11-21T14:32:57;17.40;;;11.02;;
24663;SDS011;12791;50.992;13.788;2023-11-21T14:35:24;15.00;;;10.15;;
24663;SDS011;12791;50.992;13.788;2023-11-21T14:37:51;17.33;;;10.90;;
24663;SDS011;12791;50.992;13.788;2023-11-21T14:40:18;17.88;;;10.40;;